sensor_id;sensor_type;location;lat;lon;timestamp;P1;durP1;ratioP1;P2;durP2;ratioP2
12445;SDS011;6287;50.984;7.022;2023-03-01T00:01:13;6.10;;;3.30;;
12445;SDS011;6287;50.984;7.022;2023-03-01T00:03:43;3.67;;;3.30;;
12445;SDS011;6287;50.984;7.022;2023-03-01T00:06:11;4.43;;;3.37;;
12445;SDS011;6287;50.984;7.022;2023-03-01T00:08:37;4.40;;;3.40;;
12445;SDS011;6287;50.984;7.022;2023-03-01T00:13:36;4.37;;;3.10;;
12445;SDS011;6287;50.984;7.022;2023-03-01T00:16:06;4.97;;;3.60;;
12445;SDS011;6287;50.984;7.022;2023-03-01T00:18:35;5.93;;;3.57;;
12445;SDS011;6287;50.984;7.022;2023-03-01T00:21:04;3.23;;;2.90;;
12445;SDS011;6287;50.984;7.022;2023-03-01T00:23:33;8.17;;;3.23;;
12445;SDS011;6287;50.984;7.022;2023-03-01T00:26:02;4.57;;;3.13;;
12445;SDS011;6287;50.984;7.022;2023-03-01T00:28:32;6.40;;;3.87;;
12445;SDS011;6287;50.984;7.022;2023-03-01T00:31:09;6.20;;;3.80;;
12445;SDS011;6287;50.984;7.022;2023-03-01T00:33:41;2.93;;;2.70;;
12445;SDS011;6287;50.984;7.022;2023-03-01T00:36:07;6.13;;;3.23;;
12445;SDS011;6287;50.984;7.022;2023-03-01T00:38:38;4.27;;;3.07;;
12445;SDS011;6287;50.984;7.022;2023-03-01T00:41:05;4.27;;;3.53;;
12445;SDS011;6287;50.984;7.022;2023-03-01T00:43:34;6.47;;;3.77;;
12445;SDS011;6287;50.984;7.022;2023-03-01T00:46:07;4.17;;;2.90;;
12445;SDS011;6287;50.984;7.022;2023-03-01T00:48:34;5.67;;;2.90;;
12445;SDS011;6287;50.984;7.022;2023-03-01T00:51:10;3.57;;;2.70;;
12445;SDS011;6287;50.984;7.022;2023-03-01T00:53:49;5.60;;;2.93;;
12445;SDS011;6287;50.984;7.022;2023-03-01T00:56:16;5.33;;;3.77;;
12445;SDS011;6287;50.984;7.022;2023-03-01T00:58:43;2.97;;;2.70;;
12445;SDS011;6287;50.984;7.022;2023-03-01T01:03:52;4.07;;;3.07;;
12445;SDS011;6287;50.984;7.022;2023-03-01T01:06:23;4.43;;;3.30;;
12445;SDS011;6287;50.984;7.022;2023-03-01T01:08:52;3.23;;;2.90;;
12445;SDS011;6287;50.984;7.022;2023-03-01T01:11:25;7.07;;;3.13;;
12445;SDS011;6287;50.984;7.022;2023-03-01T01:13:55;4.63;;;3.07;;
12445;SDS011;6287;50.984;7.022;2023-03-01T01:16:22;4.07;;;2.97;;
12445;SDS011;6287;50.984;7.022;2023-03-01T01:18:51;4.40;;;2.90;;
12445;SDS011;6287;50.984;7.022;2023-03-01T01:21:17;3.83;;;2.87;;
12445;SDS011;6287;50.984;7.022;2023-03-01T01:23:45;5.30;;;3.40;;
12445;SDS011;6287;50.984;7.022;2023-03-01T01:26:30;4.73;;;3.03;;
12445;SDS011;6287;50.984;7.022;2023-03-01T01:28:57;5.03;;;3.23;;
12445;SDS011;6287;50.984;7.022;2023-03-01T01:31:26;3.67;;;3.27;;
12445;SDS011;6287;50.984;7.022;2023-03-01T01:33:53;5.13;;;3.27;;
12445;SDS011;6287;50.984;7.022;2023-03-01T01:36:21;5.93;;;3.60;;
12445;SDS011;6287;50.984;7.022;2023-03-01T01:38:47;3.87;;;3.00;;
12445;SDS011;6287;50.984;7.022;2023-03-01T01:41:13;3.80;;;2.90;;
12445;SDS011;6287;50.984;7.022;2023-03-01T01:43:43;4.20;;;3.00;;
12445;SDS011;6287;50.984;7.022;2023-03-01T01:49:03;5.37;;;2.90;;
12445;SDS011;6287;50.984;7.022;2023-03-01T01:51:37;3.03;;;2.80;;
12445;SDS011;6287;50.984;7.022;2023-03-01T01:54:13;5.30;;;3.40;;
12445;SDS011;6287;50.984;7.022;2023-03-01T01:56:47;5.13;;;3.23;;
12445;SDS011;6287;50.984;7.022;2023-03-01T01:59:18;4.80;;;2.83;;
12445;SDS011;6287;50.984;7.022;2023-03-01T02:01:44;4.63;;;3.00;;
12445;SDS011;6287;50.984;7.022;2023-03-01T02:04:14;4.20;;;3.07;;
12445;SDS011;6287;50.984;7.022;2023-03-01T02:06:48;4.87;;;3.73;;
12445;SDS011;6287;50.984;7.022;2023-03-01T02:09:28;3.80;;;2.80;;
12445;SDS011;6287;50.984;7.022;2023-03-01T02:11:56;4.07;;;2.87;;
12445;SDS011;6287;50.984;7.022;2023-03-01T02:14:25;4.47;;;2.90;;
12445;SDS011;6287;50.984;7.022;2023-03-01T02:16:53;2.80;;;2.50;;
12445;SDS011;6287;50.984;7.022;2023-03-01T02:19:38;3.63;;;3.17;;
12445;SDS011;6287;50.984;7.022;2023-03-01T02:22:33;3.77;;;2.60;;
12445;SDS011;6287;50.984;7.022;2023-03-01T02:25:08;4.60;;;3.10;;
12445;SDS011;6287;50.984;7.022;2023-03-01T02:30:46;4.83;;;3.33;;
12445;SDS011;6287;50.984;7.022;2023-03-01T02:33:35;3.10;;;2.77;;
12445;SDS011;6287;50.984;7.022;2023-03-01T02:38:57;4.90;;;3.23;;
12445;SDS011;6287;50.984;7.022;2023-03-01T02:41:26;4.50;;;3.40;;
12445;SDS011;6287;50.984;7.022;2023-03-01T02:43:55;4.27;;;2.83;;
12445;SDS011;6287;50.984;7.022;2023-03-01T02:46:24;4.30;;;2.90;;
12445;SDS011;6287;50.984;7.022;2023-03-01T02:48:52;4.10;;;2.97;;
12445;SDS011;6287;50.984;7.022;2023-03-01T02:56:37;7.47;;;3.10;;
12445;SDS011;6287;50.984;7.022;2023-03-01T02:59:06;5.53;;;3.37;;
12445;SDS011;6287;50.984;7.022;2023-03-01T03:01:33;3.67;;;2.90;;
12445;SDS011;6287;50.984;7.022;2023-03-01T03:04:06;3.17;;;2.87;;
12445;SDS011;6287;50.984;7.022;2023-03-01T03:06:34;4.13;;;3.73;;
12445;SDS011;6287;50.984;7.022;2023-03-01T03:09:03;5.10;;;3.50;;
12445;SDS011;6287;50.984;7.022;2023-03-01T03:11:32;5.80;;;3.33;;
12445;SDS011;6287;50.984;7.022;2023-03-01T03:14:01;4.83;;;3.20;;
12445;SDS011;6287;50.984;7.022;2023-03-01T03:16:29;3.07;;;2.77;;
12445;SDS011;6287;50.984;7.022;2023-03-01T03:18:55;3.07;;;2.83;;
12445;SDS011;6287;50.984;7.022;2023-03-01T03:21:29;2.87;;;2.60;;
12445;SDS011;6287;50.984;7.022;2023-03-01T03:24:00;4.47;;;3.33;;
12445;SDS011;6287;50.984;7.022;2023-03-01T03:26:29;4.73;;;2.97;;
12445;SDS011;6287;50.984;7.022;2023-03-01T03:28:55;4.70;;;2.77;;
12445;SDS011;6287;50.984;7.022;2023-03-01T03:31:22;3.20;;;2.93;;
12445;SDS011;6287;50.984;7.022;2023-03-01T03:33:48;3.40;;;2.90;;
12445;SDS011;6287;50.984;7.022;2023-03-01T03:36:18;3.07;;;2.77;;
12445;SDS011;6287;50.984;7.022;2023-03-01T03:38:46;5.00;;;3.53;;
12445;SDS011;6287;50.984;7.022;2023-03-01T03:41:12;7.63;;;3.23;;
12445;SDS011;6287;50.984;7.022;2023-03-01T03:43:41;3.30;;;2.60;;
12445;SDS011;6287;50.984;7.022;2023-03-01T03:46:08;4.67;;;3.37;;
12445;SDS011;6287;50.984;7.022;2023-03-01T03:48:36;4.87;;;3.30;;
12445;SDS011;6287;50.984;7.022;2023-03-01T03:51:13;5.50;;;3.17;;
12445;SDS011;6287;50.984;7.022;2023-03-01T03:53:40;4.17;;;2.77;;
12445;SDS011;6287;50.984;7.022;2023-03-01T03:56:09;7.63;;;3.33;;
12445;SDS011;6287;50.984;7.022;2023-03-01T03:58:35;4.47;;;2.83;;
12445;SDS011;6287;50.984;7.022;2023-03-01T04:01:03;6.70;;;3.93;;
12445;SDS011;6287;50.984;7.022;2023-03-01T04:03:32;6.63;;;3.17;;
12445;SDS011;6287;50.984;7.022;2023-03-01T04:06:00;5.07;;;3.10;;
12445;SDS011;6287;50.984;7.022;2023-03-01T04:08:26;6.23;;;4.00;;
12445;SDS011;6287;50.984;7.022;2023-03-01T04:10:56;4.37;;;3.10;;
12445;SDS011;6287;50.984;7.022;2023-03-01T04:13:44;3.43;;;3.10;;
12445;SDS011;6287;50.984;7.022;2023-03-01T04:16:10;6.90;;;3.53;;
12445;SDS011;6287;50.984;7.022;2023-03-01T04:18:35;4.37;;;3.20;;
12445;SDS011;6287;50.984;7.022;2023-03-01T04:21:01;4.17;;;3.57;;
12445;SDS011;6287;50.984;7.022;2023-03-01T04:23:26;3.63;;;3.33;;
12445;SDS011;6287;50.984;7.022;2023-03-01T04:25:53;5.60;;;3.43;;
12445;SDS011;6287;50.984;7.022;2023-03-01T04:30:56;4.23;;;3.83;;
12445;SDS011;6287;50.984;7.022;2023-03-01T04:33:23;9.90;;;4.17;;
12445;SDS011;6287;50.984;7.022;2023-03-01T04:35:49;5.70;;;3.80;;
12445;SDS011;6287;50.984;7.022;2023-03-01T04:38:18;5.63;;;3.30;;
12445;SDS011;6287;50.984;7.022;2023-03-01T04:40:44;4.97;;;3.50;;
12445;SDS011;6287;50.984;7.022;2023-03-01T04:43:12;5.70;;;3.60;;
12445;SDS011;6287;50.984;7.022;2023-03-01T04:45:41;3.43;;;3.13;;
12445;SDS011;6287;50.984;7.022;2023-03-01T04:48:09;5.83;;;3.13;;
12445;SDS011;6287;50.984;7.022;2023-03-01T04:50:39;8.43;;;4.10;;
12445;SDS011;6287;50.984;7.022;2023-03-01T04:53:05;4.60;;;4.00;;
12445;SDS011;6287;50.984;7.022;2023-03-01T04:55:30;5.77;;;3.40;;
12445;SDS011;6287;50.984;7.022;2023-03-01T04:57:58;3.87;;;3.33;;
12445;SDS011;6287;50.984;7.022;2023-03-01T05:00:24;4.17;;;3.03;;
12445;SDS011;6287;50.984;7.022;2023-03-01T05:02:54;6.67;;;3.67;;
12445;SDS011;6287;50.984;7.022;2023-03-01T05:05:34;4.57;;;3.83;;
12445;SDS011;6287;50.984;7.022;2023-03-01T05:08:02;4.17;;;2.87;;
12445;SDS011;6287;50.984;7.022;2023-03-01T05:10:32;5.60;;;4.13;;
12445;SDS011;6287;50.984;7.022;2023-03-01T05:13:02;8.50;;;4.83;;
12445;SDS011;6287;50.984;7.022;2023-03-01T05:15:31;5.33;;;3.53;;
12445;SDS011;6287;50.984;7.022;2023-03-01T05:17:58;4.77;;;3.30;;
12445;SDS011;6287;50.984;7.022;2023-03-01T05:20:28;6.83;;;4.10;;
12445;SDS011;6287;50.984;7.022;2023-03-01T05:22:55;6.77;;;3.80;;
12445;SDS011;6287;50.984;7.022;2023-03-01T05:25:26;6.10;;;3.60;;
12445;SDS011;6287;50.984;7.022;2023-03-01T05:27:58;4.77;;;3.57;;
12445;SDS011;6287;50.984;7.022;2023-03-01T05:30:29;6.90;;;3.80;;
12445;SDS011;6287;50.984;7.022;2023-03-01T05:32:58;12.43;;;4.50;;
12445;SDS011;6287;50.984;7.022;2023-03-01T05:35:23;6.70;;;4.27;;
12445;SDS011;6287;50.984;7.022;2023-03-01T05:37:52;7.43;;;4.37;;
12445;SDS011;6287;50.984;7.022;2023-03-01T05:40:20;5.97;;;3.87;;
12445;SDS011;6287;50.984;7.022;2023-03-01T05:42:50;6.00;;;4.10;;
12445;SDS011;6287;50.984;7.022;2023-03-01T05:45:19;5.00;;;3.87;;
12445;SDS011;6287;50.984;7.022;2023-03-01T05:47:46;6.53;;;3.83;;
12445;SDS011;6287;50.984;7.022;2023-03-01T05:50:15;7.07;;;3.73;;
12445;SDS011;6287;50.984;7.022;2023-03-01T05:52:51;4.07;;;3.03;;
12445;SDS011;6287;50.984;7.022;2023-03-01T05:55:22;5.87;;;3.70;;
12445;SDS011;6287;50.984;7.022;2023-03-01T05:57:52;6.57;;;3.40;;
12445;SDS011;6287;50.984;7.022;2023-03-01T06:00:19;8.27;;;4.73;;
12445;SDS011;6287;50.984;7.022;2023-03-01T06:02:47;10.23;;;4.40;;
12445;SDS011;6287;50.984;7.022;2023-03-01T06:05:13;4.90;;;3.90;;
12445;SDS011;6287;50.984;7.022;2023-03-01T06:07:42;7.10;;;4.43;;
12445;SDS011;6287;50.984;7.022;2023-03-01T06:10:10;7.90;;;4.30;;
12445;SDS011;6287;50.984;7.022;2023-03-01T06:12:37;7.17;;;4.43;;
12445;SDS011;6287;50.984;7.022;2023-03-01T06:15:06;6.70;;;4.17;;
12445;SDS011;6287;50.984;7.022;2023-03-01T06:17:34;9.13;;;5.03;;
12445;SDS011;6287;50.984;7.022;2023-03-01T06:20:04;8.73;;;3.80;;
12445;SDS011;6287;50.984;7.022;2023-03-01T06:22:39;6.13;;;4.17;;
12445;SDS011;6287;50.984;7.022;2023-03-01T06:25:08;6.40;;;4.03;;
12445;SDS011;6287;50.984;7.022;2023-03-01T06:27:34;8.03;;;4.93;;
12445;SDS011;6287;50.984;7.022;2023-03-01T06:30:05;7.33;;;3.60;;
12445;SDS011;6287;50.984;7.022;2023-03-01T06:32:34;5.90;;;4.80;;
12445;SDS011;6287;50.984;7.022;2023-03-01T06:35:00;5.63;;;3.83;;
12445;SDS011;6287;50.984;7.022;2023-03-01T06:37:28;6.80;;;4.33;;
12445;SDS011;6287;50.984;7.022;2023-03-01T06:39:59;7.27;;;4.03;;
12445;SDS011;6287;50.984;7.022;2023-03-01T06:42:24;7.57;;;4.10;;
12445;SDS011;6287;50.984;7.022;2023-03-01T06:44:50;7.97;;;4.33;;
12445;SDS011;6287;50.984;7.022;2023-03-01T06:47:15;4.73;;;3.93;;
12445;SDS011;6287;50.984;7.022;2023-03-01T06:49:45;4.63;;;3.77;;
12445;SDS011;6287;50.984;7.022;2023-03-01T06:52:11;6.70;;;4.17;;
12445;SDS011;6287;50.984;7.022;2023-03-01T06:54:40;6.33;;;4.90;;
12445;SDS011;6287;50.984;7.022;2023-03-01T06:57:10;7.37;;;4.33;;
12445;SDS011;6287;50.984;7.022;2023-03-01T06:59:36;6.80;;;4.43;;
12445;SDS011;6287;50.984;7.022;2023-03-01T07:02:02;10.13;;;4.33;;
12445;SDS011;6287;50.984;7.022;2023-03-01T07:04:29;6.93;;;4.60;;
12445;SDS011;6287;50.984;7.022;2023-03-01T07:06:55;9.33;;;4.63;;
12445;SDS011;6287;50.984;7.022;2023-03-01T07:09:21;7.47;;;4.90;;
12445;SDS011;6287;50.984;7.022;2023-03-01T07:11:50;11.43;;;5.27;;
12445;SDS011;6287;50.984;7.022;2023-03-01T07:14:16;8.80;;;5.20;;
12445;SDS011;6287;50.984;7.022;2023-03-01T07:16:44;9.00;;;5.33;;
12445;SDS011;6287;50.984;7.022;2023-03-01T07:19:12;11.20;;;5.53;;
12445;SDS011;6287;50.984;7.022;2023-03-01T07:21:37;13.23;;;5.77;;
12445;SDS011;6287;50.984;7.022;2023-03-01T07:24:08;9.60;;;5.67;;
12445;SDS011;6287;50.984;7.022;2023-03-01T07:26:33;11.30;;;5.33;;
12445;SDS011;6287;50.984;7.022;2023-03-01T07:29:04;8.87;;;5.23;;
12445;SDS011;6287;50.984;7.022;2023-03-01T07:31:31;9.60;;;5.20;;
12445;SDS011;6287;50.984;7.022;2023-03-01T07:33:57;7.97;;;4.80;;
12445;SDS011;6287;50.984;7.022;2023-03-01T07:36:23;7.73;;;5.20;;
12445;SDS011;6287;50.984;7.022;2023-03-01T07:38:49;10.93;;;6.37;;
12445;SDS011;6287;50.984;7.022;2023-03-01T07:41:15;13.70;;;6.13;;
12445;SDS011;6287;50.984;7.022;2023-03-01T07:43:43;7.67;;;5.57;;
12445;SDS011;6287;50.984;7.022;2023-03-01T07:46:09;9.90;;;5.13;;
12445;SDS011;6287;50.984;7.022;2023-03-01T07:48:34;9.97;;;5.57;;
12445;SDS011;6287;50.984;7.022;2023-03-01T07:51:00;8.57;;;5.77;;
12445;SDS011;6287;50.984;7.022;2023-03-01T07:53:29;7.50;;;5.17;;
12445;SDS011;6287;50.984;7.022;2023-03-01T07:58:36;8.20;;;5.30;;
12445;SDS011;6287;50.984;7.022;2023-03-01T08:01:03;12.67;;;6.80;;
12445;SDS011;6287;50.984;7.022;2023-03-01T08:03:30;9.23;;;5.90;;
12445;SDS011;6287;50.984;7.022;2023-03-01T08:05:58;10.73;;;6.17;;
12445;SDS011;6287;50.984;7.022;2023-03-01T08:08:28;8.13;;;5.77;;
12445;SDS011;6287;50.984;7.022;2023-03-01T08:10:56;8.80;;;5.60;;
12445;SDS011;6287;50.984;7.022;2023-03-01T08:13:22;10.10;;;6.57;;
12445;SDS011;6287;50.984;7.022;2023-03-01T08:15:51;8.57;;;5.33;;
12445;SDS011;6287;50.984;7.022;2023-03-01T08:18:17;8.47;;;5.63;;
12445;SDS011;6287;50.984;7.022;2023-03-01T08:20:46;9.23;;;5.93;;
12445;SDS011;6287;50.984;7.022;2023-03-01T08:23:12;9.03;;;6.10;;
12445;SDS011;6287;50.984;7.022;2023-03-01T08:25:40;12.33;;;6.17;;
12445;SDS011;6287;50.984;7.022;2023-03-01T08:28:06;8.97;;;6.10;;
12445;SDS011;6287;50.984;7.022;2023-03-01T08:30:31;12.17;;;6.47;;
12445;SDS011;6287;50.984;7.022;2023-03-01T08:32:57;10.10;;;6.30;;
12445;SDS011;6287;50.984;7.022;2023-03-01T08:35:25;8.60;;;5.47;;
12445;SDS011;6287;50.984;7.022;2023-03-01T08:37:51;9.73;;;5.80;;
12445;SDS011;6287;50.984;7.022;2023-03-01T08:40:17;9.20;;;5.47;;
12445;SDS011;6287;50.984;7.022;2023-03-01T08:42:45;8.13;;;5.23;;
12445;SDS011;6287;50.984;7.022;2023-03-01T08:45:13;10.20;;;6.10;;
12445;SDS011;6287;50.984;7.022;2023-03-01T08:47:43;9.97;;;5.70;;
12445;SDS011;6287;50.984;7.022;2023-03-01T08:50:10;7.47;;;5.53;;
12445;SDS011;6287;50.984;7.022;2023-03-01T08:52:35;7.73;;;5.67;;
12445;SDS011;6287;50.984;7.022;2023-03-01T08:55:01;12.53;;;5.37;;
12445;SDS011;6287;50.984;7.022;2023-03-01T08:57:27;8.00;;;5.70;;
12445;SDS011;6287;50.984;7.022;2023-03-01T08:59:55;6.50;;;4.67;;
12445;SDS011;6287;50.984;7.022;2023-03-01T09:02:21;8.57;;;5.23;;
12445;SDS011;6287;50.984;7.022;2023-03-01T09:04:47;6.43;;;4.67;;
12445;SDS011;6287;50.984;7.022;2023-03-01T09:07:12;7.47;;;4.80;;
12445;SDS011;6287;50.984;7.022;2023-03-01T09:09:40;6.03;;;4.67;;
12445;SDS011;6287;50.984;7.022;2023-03-01T09:12:09;8.80;;;4.73;;
12445;SDS011;6287;50.984;7.022;2023-03-01T09:14:36;7.00;;;5.00;;
12445;SDS011;6287;50.984;7.022;2023-03-01T09:17:06;8.80;;;5.07;;
12445;SDS011;6287;50.984;7.022;2023-03-01T09:19:31;6.67;;;4.73;;
12445;SDS011;6287;50.984;7.022;2023-03-01T09:22:02;7.17;;;4.80;;
12445;SDS011;6287;50.984;7.022;2023-03-01T09:24:28;8.10;;;4.53;;
12445;SDS011;6287;50.984;7.022;2023-03-01T09:26:54;9.77;;;4.90;;
12445;SDS011;6287;50.984;7.022;2023-03-01T09:29:20;7.33;;;4.67;;
12445;SDS011;6287;50.984;7.022;2023-03-01T09:31:49;6.33;;;4.80;;
12445;SDS011;6287;50.984;7.022;2023-03-01T09:34:14;9.20;;;5.27;;
12445;SDS011;6287;50.984;7.022;2023-03-01T09:36:44;8.50;;;4.97;;
12445;SDS011;6287;50.984;7.022;2023-03-01T09:39:09;7.27;;;5.10;;
12445;SDS011;6287;50.984;7.022;2023-03-01T09:46:45;9.77;;;4.87;;
12445;SDS011;6287;50.984;7.022;2023-03-01T09:49:23;6.10;;;4.87;;
12445;SDS011;6287;50.984;7.022;2023-03-01T09:51:55;6.93;;;4.70;;
12445;SDS011;6287;50.984;7.022;2023-03-01T09:54:23;6.70;;;4.80;;
12445;SDS011;6287;50.984;7.022;2023-03-01T09:59:44;6.73;;;4.53;;
12445;SDS011;6287;50.984;7.022;2023-03-01T10:10:51;6.20;;;4.87;;
12445;SDS011;6287;50.984;7.022;2023-03-01T10:13:20;6.53;;;4.80;;
12445;SDS011;6287;50.984;7.022;2023-03-01T10:15:50;8.60;;;5.60;;
12445;SDS011;6287;50.984;7.022;2023-03-01T10:18:26;6.50;;;5.07;;
12445;SDS011;6287;50.984;7.022;2023-03-01T10:21:01;7.97;;;4.57;;
12445;SDS011;6287;50.984;7.022;2023-03-01T10:23:33;7.17;;;4.77;;
12445;SDS011;6287;50.984;7.022;2023-03-01T10:29:09;7.47;;;5.33;;
12445;SDS011;6287;50.984;7.022;2023-03-01T10:34:13;11.00;;;5.53;;
12445;SDS011;6287;50.984;7.022;2023-03-01T10:36:41;6.80;;;5.00;;
12445;SDS011;6287;50.984;7.022;2023-03-01T10:39:13;5.00;;;4.50;;
12445;SDS011;6287;50.984;7.022;2023-03-01T10:41:52;8.53;;;5.37;;
12445;SDS011;6287;50.984;7.022;2023-03-01T10:44:40;8.17;;;5.70;;
12445;SDS011;6287;50.984;7.022;2023-03-01T10:47:13;6.63;;;5.13;;
12445;SDS011;6287;50.984;7.022;2023-03-01T10:52:25;7.80;;;4.70;;
12445;SDS011;6287;50.984;7.022;2023-03-01T10:54:58;7.30;;;5.13;;
12445;SDS011;6287;50.984;7.022;2023-03-01T10:57:50;7.87;;;5.27;;
12445;SDS011;6287;50.984;7.022;2023-03-01T11:00:45;6.10;;;4.90;;
12445;SDS011;6287;50.984;7.022;2023-03-01T11:03:33;6.83;;;4.97;;
12445;SDS011;6287;50.984;7.022;2023-03-01T11:06:12;6.37;;;4.60;;
12445;SDS011;6287;50.984;7.022;2023-03-01T11:08:47;6.13;;;4.90;;
12445;SDS011;6287;50.984;7.022;2023-03-01T11:11:25;6.40;;;4.77;;
12445;SDS011;6287;50.984;7.022;2023-03-01T11:13:57;7.50;;;5.37;;
12445;SDS011;6287;50.984;7.022;2023-03-01T11:16:40;6.13;;;4.57;;
12445;SDS011;6287;50.984;7.022;2023-03-01T11:24:42;7.37;;;5.30;;
12445;SDS011;6287;50.984;7.022;2023-03-01T11:27:16;6.93;;;4.87;;
12445;SDS011;6287;50.984;7.022;2023-03-01T11:29:50;7.27;;;4.87;;
12445;SDS011;6287;50.984;7.022;2023-03-01T11:32:26;8.10;;;5.63;;
12445;SDS011;6287;50.984;7.022;2023-03-01T11:35:00;6.87;;;4.70;;
12445;SDS011;6287;50.984;7.022;2023-03-01T11:50:53;6.00;;;4.57;;
12445;SDS011;6287;50.984;7.022;2023-03-01T11:53:47;6.03;;;4.70;;
12445;SDS011;6287;50.984;7.022;2023-03-01T12:06:51;6.40;;;4.90;;
12445;SDS011;6287;50.984;7.022;2023-03-01T12:22:39;5.60;;;4.60;;
12445;SDS011;6287;50.984;7.022;2023-03-01T12:25:16;6.53;;;4.33;;
12445;SDS011;6287;50.984;7.022;2023-03-01T12:30:37;6.07;;;4.70;;
12445;SDS011;6287;50.984;7.022;2023-03-01T12:33:31;5.10;;;4.10;;
12445;SDS011;6287;50.984;7.022;2023-03-01T12:43:06;4.73;;;4.00;;
12445;SDS011;6287;50.984;7.022;2023-03-01T12:50:49;5.77;;;4.17;;
12445;SDS011;6287;50.984;7.022;2023-03-01T12:55:53;5.47;;;4.13;;
12445;SDS011;6287;50.984;7.022;2023-03-01T12:58:26;7.47;;;4.70;;
12445;SDS011;6287;50.984;7.022;2023-03-01T13:06:32;6.63;;;4.43;;
12445;SDS011;6287;50.984;7.022;2023-03-01T13:09:18;5.07;;;4.10;;
12445;SDS011;6287;50.984;7.022;2023-03-01T13:11:50;6.70;;;4.70;;
12445;SDS011;6287;50.984;7.022;2023-03-01T13:16:52;4.83;;;4.33;;
12445;SDS011;6287;50.984;7.022;2023-03-01T13:21:51;7.33;;;4.90;;
12445;SDS011;6287;50.984;7.022;2023-03-01T13:32:31;4.70;;;4.17;;
12445;SDS011;6287;50.984;7.022;2023-03-01T13:37:44;5.23;;;4.33;;
12445;SDS011;6287;50.984;7.022;2023-03-01T13:42:42;8.03;;;5.20;;
12445;SDS011;6287;50.984;7.022;2023-03-01T13:45:16;5.10;;;4.50;;
12445;SDS011;6287;50.984;7.022;2023-03-01T13:47:45;5.70;;;4.53;;
12445;SDS011;6287;50.984;7.022;2023-03-01T13:50:19;5.40;;;4.45;;
12445;SDS011;6287;50.984;7.022;2023-03-01T14:03:26;6.03;;;3.77;;
12445;SDS011;6287;50.984;7.022;2023-03-01T14:08:40;5.27;;;4.00;;
12445;SDS011;6287;50.984;7.022;2023-03-01T14:14:00;4.20;;;3.37;;
12445;SDS011;6287;50.984;7.022;2023-03-01T14:19:29;6.97;;;4.10;;
12445;SDS011;6287;50.984;7.022;2023-03-01T14:24:44;4.63;;;4.10;;
12445;SDS011;6287;50.984;7.022;2023-03-01T14:27:15;5.50;;;4.03;;
12445;SDS011;6287;50.984;7.022;2023-03-01T14:29:42;4.53;;;3.80;;
12445;SDS011;6287;50.984;7.022;2023-03-01T14:32:08;4.60;;;3.80;;
12445;SDS011;6287;50.984;7.022;2023-03-01T14:34:51;4.70;;;4.20;;
12445;SDS011;6287;50.984;7.022;2023-03-01T14:39:57;5.77;;;4.10;;
12445;SDS011;6287;50.984;7.022;2023-03-01T14:42:24;8.00;;;4.30;;
12445;SDS011;6287;50.984;7.022;2023-03-01T14:44:53;4.20;;;3.80;;
12445;SDS011;6287;50.984;7.022;2023-03-01T14:47:33;5.03;;;4.30;;
12445;SDS011;6287;50.984;7.022;2023-03-01T14:52:51;6.70;;;4.07;;
12445;SDS011;6287;50.984;7.022;2023-03-01T14:55:31;4.97;;;3.73;;
12445;SDS011;6287;50.984;7.022;2023-03-01T14:57:57;6.73;;;4.00;;
12445;SDS011;6287;50.984;7.022;2023-03-01T15:00:30;5.73;;;4.23;;
12445;SDS011;6287;50.984;7.022;2023-03-01T15:03:01;5.00;;;4.03;;
12445;SDS011;6287;50.984;7.022;2023-03-01T15:05:34;6.83;;;4.60;;
12445;SDS011;6287;50.984;7.022;2023-03-01T15:08:02;4.73;;;3.70;;
12445;SDS011;6287;50.984;7.022;2023-03-01T15:10:56;6.10;;;3.87;;
12445;SDS011;6287;50.984;7.022;2023-03-01T15:13:26;6.50;;;4.07;;
12445;SDS011;6287;50.984;7.022;2023-03-01T15:16:11;6.10;;;3.57;;
12445;SDS011;6287;50.984;7.022;2023-03-01T15:18:46;5.30;;;3.80;;
12445;SDS011;6287;50.984;7.022;2023-03-01T15:21:21;5.97;;;4.10;;
12445;SDS011;6287;50.984;7.022;2023-03-01T15:23:52;6.00;;;3.90;;
12445;SDS011;6287;50.984;7.022;2023-03-01T15:26:28;6.43;;;4.10;;
12445;SDS011;6287;50.984;7.022;2023-03-01T15:29:04;5.07;;;3.60;;
12445;SDS011;6287;50.984;7.022;2023-03-01T15:31:41;6.03;;;3.93;;
12445;SDS011;6287;50.984;7.022;2023-03-01T15:34:19;6.17;;;4.17;;
12445;SDS011;6287;50.984;7.022;2023-03-01T15:36:48;6.53;;;4.10;;
12445;SDS011;6287;50.984;7.022;2023-03-01T15:42:07;6.20;;;3.47;;
12445;SDS011;6287;50.984;7.022;2023-03-01T15:45:06;6.13;;;3.50;;
12445;SDS011;6287;50.984;7.022;2023-03-01T15:47:34;4.90;;;3.77;;
12445;SDS011;6287;50.984;7.022;2023-03-01T15:50:02;4.13;;;3.30;;
12445;SDS011;6287;50.984;7.022;2023-03-01T15:52:49;4.00;;;3.50;;
12445;SDS011;6287;50.984;7.022;2023-03-01T15:55:19;5.73;;;3.73;;
12445;SDS011;6287;50.984;7.022;2023-03-01T15:57:49;7.23;;;4.07;;
12445;SDS011;6287;50.984;7.022;2023-03-01T16:00:22;5.47;;;3.10;;
12445;SDS011;6287;50.984;7.022;2023-03-01T16:02:50;6.73;;;4.30;;
12445;SDS011;6287;50.984;7.022;2023-03-01T16:05:18;5.73;;;3.80;;
12445;SDS011;6287;50.984;7.022;2023-03-01T16:07:52;4.20;;;3.73;;
12445;SDS011;6287;50.984;7.022;2023-03-01T16:10:18;6.37;;;3.40;;
12445;SDS011;6287;50.984;7.022;2023-03-01T16:12:44;5.43;;;3.67;;
12445;SDS011;6287;50.984;7.022;2023-03-01T16:15:17;4.50;;;3.30;;
12445;SDS011;6287;50.984;7.022;2023-03-01T16:17:43;5.03;;;3.73;;
12445;SDS011;6287;50.984;7.022;2023-03-01T16:20:09;5.70;;;3.77;;
12445;SDS011;6287;50.984;7.022;2023-03-01T16:22:35;6.23;;;3.83;;
12445;SDS011;6287;50.984;7.022;2023-03-01T16:25:00;6.27;;;3.57;;
12445;SDS011;6287;50.984;7.022;2023-03-01T16:27:27;5.47;;;3.77;;
12445;SDS011;6287;50.984;7.022;2023-03-01T16:29:53;6.90;;;3.77;;
12445;SDS011;6287;50.984;7.022;2023-03-01T16:32:21;5.43;;;3.30;;
12445;SDS011;6287;50.984;7.022;2023-03-01T16:34:49;5.10;;;3.93;;
12445;SDS011;6287;50.984;7.022;2023-03-01T16:37:16;5.70;;;3.77;;
12445;SDS011;6287;50.984;7.022;2023-03-01T16:39:46;3.90;;;3.50;;
12445;SDS011;6287;50.984;7.022;2023-03-01T16:42:17;4.50;;;3.53;;
12445;SDS011;6287;50.984;7.022;2023-03-01T16:44:45;3.60;;;3.30;;
12445;SDS011;6287;50.984;7.022;2023-03-01T16:47:13;3.93;;;3.33;;
12445;SDS011;6287;50.984;7.022;2023-03-01T16:49:44;4.77;;;3.70;;
12445;SDS011;6287;50.984;7.022;2023-03-01T16:52:16;4.40;;;2.80;;
12445;SDS011;6287;50.984;7.022;2023-03-01T16:54:43;4.77;;;3.67;;
12445;SDS011;6287;50.984;7.022;2023-03-01T16:57:09;4.70;;;3.17;;
12445;SDS011;6287;50.984;7.022;2023-03-01T16:59:35;3.97;;;3.30;;
12445;SDS011;6287;50.984;7.022;2023-03-01T17:02:02;3.90;;;3.30;;
12445;SDS011;6287;50.984;7.022;2023-03-01T17:04:28;6.23;;;3.50;;
12445;SDS011;6287;50.984;7.022;2023-03-01T17:06:56;4.27;;;3.87;;
12445;SDS011;6287;50.984;7.022;2023-03-01T17:09:24;8.97;;;3.90;;
12445;SDS011;6287;50.984;7.022;2023-03-01T17:11:54;3.47;;;3.17;;
12445;SDS011;6287;50.984;7.022;2023-03-01T17:14:20;6.73;;;3.73;;
12445;SDS011;6287;50.984;7.022;2023-03-01T17:16:46;4.50;;;3.17;;
12445;SDS011;6287;50.984;7.022;2023-03-01T17:19:14;4.43;;;3.40;;
12445;SDS011;6287;50.984;7.022;2023-03-01T17:21:43;4.97;;;3.63;;
12445;SDS011;6287;50.984;7.022;2023-03-01T17:24:09;5.00;;;3.80;;
12445;SDS011;6287;50.984;7.022;2023-03-01T17:26:35;7.73;;;4.60;;
12445;SDS011;6287;50.984;7.022;2023-03-01T17:29:03;4.33;;;3.70;;
12445;SDS011;6287;50.984;7.022;2023-03-01T17:31:29;4.43;;;3.53;;
12445;SDS011;6287;50.984;7.022;2023-03-01T17:33:58;7.87;;;3.57;;
12445;SDS011;6287;50.984;7.022;2023-03-01T17:36:25;4.03;;;3.07;;
12445;SDS011;6287;50.984;7.022;2023-03-01T17:38:58;5.60;;;3.77;;
12445;SDS011;6287;50.984;7.022;2023-03-01T17:41:26;7.67;;;3.73;;
12445;SDS011;6287;50.984;7.022;2023-03-01T17:43:52;3.40;;;3.10;;
12445;SDS011;6287;50.984;7.022;2023-03-01T17:46:18;6.17;;;3.57;;
12445;SDS011;6287;50.984;7.022;2023-03-01T17:48:43;5.57;;;4.10;;
12445;SDS011;6287;50.984;7.022;2023-03-01T17:51:14;4.87;;;4.00;;
12445;SDS011;6287;50.984;7.022;2023-03-01T17:53:44;5.90;;;4.03;;
12445;SDS011;6287;50.984;7.022;2023-03-01T17:56:10;6.90;;;3.90;;
12445;SDS011;6287;50.984;7.022;2023-03-01T17:58:36;5.70;;;3.33;;
12445;SDS011;6287;50.984;7.022;2023-03-01T18:01:16;5.73;;;3.80;;